« Back
NWS Peachtree City, Ga » Text Product » AHN Terminal Aerodrome Forecast


Printer-friendly Version
Current Version              Previous Versions:   1  2  3  4  5  6  7  8  9  

Terminal Aerodrome Forecast

104
FTUS42 KFFC 272331
TAFAHN
TAF
KAHN 272331Z 2800/2824 35006KT P6SM FEW250
     FM280300 03005KT P6SM SCT025
     FM280900 05006KT P6SM BKN015
     FM281500 07011G18KT P6SM BKN020
     FM281700 08010G16KT P6SM SCT025 BKN080=



USA.gov is the U.S. government's official web portal to all federal, state and local government web resources and services.